createdAt,value
2019-01-10T00:04:20.293Z,20.90
2019-01-10T00:09:24.339Z,20.99
2019-01-10T00:14:28.531Z,21.13
2019-01-10T00:19:32.614Z,21.13
2019-01-10T00:24:36.815Z,21.29
2019-01-10T00:29:40.922Z,21.20
2019-01-10T00:34:45.040Z,21.12
2019-01-10T00:39:49.156Z,21.02
2019-01-10T00:44:53.274Z,20.95
2019-01-10T00:49:57.376Z,20.95
2019-01-10T00:55:01.457Z,20.86
2019-01-10T01:00:08.869Z,20.81
2019-01-10T01:05:14.458Z,21.03
2019-01-10T01:10:23.762Z,21.16
2019-01-10T01:15:27.930Z,21.15
2019-01-10T01:20:32.051Z,21.12
2019-01-10T01:25:36.141Z,21.00
2019-01-10T01:30:40.313Z,20.96
2019-01-10T01:35:44.402Z,20.84
2019-01-10T01:40:48.586Z,20.80
2019-01-10T01:45:52.682Z,20.75
2019-01-10T01:50:56.892Z,20.84
2019-01-10T01:56:01.077Z,20.97
2019-01-10T02:01:05.371Z,21.05
2019-01-10T02:06:09.485Z,21.10
2019-01-10T02:11:13.674Z,21.08
2019-01-10T02:16:17.738Z,20.99
2019-01-10T02:21:21.775Z,20.91
2019-01-10T02:26:25.889Z,20.91
2019-01-10T02:31:29.980Z,20.81
2019-01-10T02:36:34.076Z,20.70
2019-01-10T02:41:38.250Z,20.64
2019-01-10T02:46:42.290Z,20.72
2019-01-10T02:51:46.396Z,20.85
2019-01-10T02:56:50.498Z,20.98
2019-01-10T03:01:54.530Z,21.07
2019-01-10T03:06:58.654Z,21.09
2019-01-10T03:12:02.758Z,20.99
2019-01-10T03:17:06.955Z,20.91
2019-01-10T03:22:10.979Z,20.80
2019-01-10T03:27:15.088Z,20.73
2019-01-10T03:32:19.195Z,20.67
2019-01-10T03:37:23.240Z,20.67
2019-01-10T03:42:27.285Z,20.78
2019-01-10T03:47:31.403Z,21.03
2019-01-10T03:52:35.548Z,21.22
2019-01-10T03:57:39.674Z,21.23
2019-01-10T04:02:43.709Z,21.10
2019-01-10T04:07:47.816Z,21.01
2019-01-10T04:12:51.940Z,21.01
2019-01-10T04:17:56.117Z,20.79
2019-01-10T04:23:00.254Z,20.72
2019-01-10T04:28:04.404Z,20.62
2019-01-10T04:33:08.443Z,20.62
2019-01-10T04:38:12.567Z,20.66
2019-01-10T04:43:16.710Z,20.89
2019-01-10T04:48:20.743Z,21.22
2019-01-10T04:53:26.714Z,21.23
2019-01-10T04:58:30.621Z,21.13
2019-01-10T05:03:34.660Z,21.00
2019-01-10T05:08:38.691Z,20.91
2019-01-10T05:13:42.826Z,20.80
2019-01-10T05:18:46.939Z,20.70
2019-01-10T05:23:50.980Z,20.60
2019-01-10T05:28:55.025Z,20.54
2019-01-10T05:33:59.254Z,20.54
2019-01-10T05:39:04.735Z,20.61
2019-01-10T05:44:08.761Z,20.89
2019-01-10T05:49:12.785Z,21.08
2019-01-10T05:54:16.906Z,21.08
2019-01-10T05:59:20.925Z,21.00
2019-01-10T06:04:25.027Z,21.00
2019-01-10T06:09:29.049Z,20.90
2019-01-10T06:14:35.697Z,20.79
2019-01-10T06:19:38.976Z,20.62
2019-01-10T06:24:43.006Z,20.54
2019-01-10T06:29:47.154Z,20.49
2019-01-10T06:34:51.191Z,20.54
2019-01-10T06:39:55.228Z,20.73
2019-01-10T06:44:59.340Z,20.73
2019-01-10T06:50:03.661Z,21.07
2019-01-10T06:55:08.816Z,21.01
2019-01-10T07:00:21.126Z,21.01
2019-01-10T07:05:25.299Z,20.81
2019-01-10T07:10:30.626Z,20.71
2019-01-10T07:15:34.738Z,20.64
2019-01-10T07:20:40.317Z,20.53
2019-01-10T07:25:44.442Z,20.53
2019-01-10T07:30:48.546Z,20.47
2019-01-10T07:35:57.813Z,20.47
2019-01-10T07:41:01.843Z,20.84
2019-01-10T07:46:07.038Z,20.97
2019-01-10T07:51:11.244Z,18.38
2019-01-10T07:56:15.442Z,15.93
2019-01-10T08:01:19.467Z,15.05
2019-01-10T08:06:23.598Z,13.63
2019-01-10T08:11:27.704Z,17.25
2019-01-10T08:16:31.807Z,19.16
2019-01-10T08:21:36.032Z,19.94
2019-01-10T08:26:40.069Z,19.94
2019-01-10T08:31:44.249Z,20.47
2019-01-10T08:36:48.370Z,20.59
2019-01-10T08:41:52.400Z,20.57
2019-01-10T08:46:56.499Z,20.45
2019-01-10T08:52:00.674Z,20.28
2019-01-10T08:57:07.477Z,20.28
2019-01-10T09:02:11.555Z,20.26
2019-01-10T09:07:15.902Z,20.23
2019-01-10T09:12:20.107Z,20.30
2019-01-10T09:17:24.233Z,20.52
2019-01-10T09:22:28.256Z,20.79
2019-01-10T09:27:32.295Z,21.00
2019-01-10T09:32:36.412Z,20.92
2019-01-10T09:37:40.689Z,20.92
2019-01-10T09:42:45.126Z,20.78
2019-01-10T09:47:49.733Z,20.78
2019-01-10T09:52:54.524Z,20.62
2019-01-10T09:57:58.659Z,20.58
2019-01-10T10:03:02.705Z,20.54
2019-01-10T10:08:07.012Z,20.54
2019-01-10T10:13:11.137Z,20.75
2019-01-10T10:18:15.318Z,20.75
2019-01-10T10:23:26.735Z,21.06
2019-01-10T10:28:25.282Z,20.99
2019-01-10T10:33:29.337Z,20.88
2019-01-10T10:38:33.392Z,20.79
2019-01-10T10:43:37.542Z,20.74
2019-01-10T10:48:41.738Z,20.63
2019-01-10T10:53:45.946Z,20.63
2019-01-10T10:58:50.081Z,20.51
2019-01-10T11:03:54.573Z,20.62
2019-01-10T11:08:58.759Z,20.84
2019-01-10T11:14:02.879Z,21.03
2019-01-10T11:19:07.084Z,21.03
2019-01-10T11:24:11.289Z,21.07
2019-01-10T11:29:15.386Z,20.89
2019-01-10T11:34:19.531Z,20.78
2019-01-10T11:39:23.719Z,20.66
2019-01-10T11:44:27.788Z,20.66
2019-01-10T11:49:31.947Z,20.55
2019-01-10T11:54:36.071Z,20.56
2019-01-10T11:59:40.355Z,20.72
2019-01-10T12:04:44.563Z,20.72
2019-01-10T12:09:48.629Z,21.09
2019-01-10T12:14:52.666Z,21.09
2019-01-10T12:19:56.780Z,20.94
2019-01-10T12:25:00.837Z,20.92
2019-01-10T12:30:07.117Z,20.78
2019-01-10T12:35:11.317Z,20.72
2019-01-10T12:40:15.577Z,20.63
2019-01-10T12:45:20.608Z,20.56
2019-01-10T12:50:30.051Z,20.56
2019-01-10T12:55:34.243Z,20.56
2019-01-10T13:00:40.520Z,15.97
2019-01-10T13:05:44.458Z,15.97
2019-01-10T13:10:48.596Z,15.30
2019-01-10T13:15:52.710Z,18.64
2019-01-10T13:20:56.903Z,19.77
2019-01-10T13:26:00.934Z,20.34
2019-01-10T13:31:05.089Z,20.70
2019-01-10T13:36:09.206Z,21.00
2019-01-10T13:41:13.325Z,20.94
2019-01-10T13:46:17.562Z,20.83
2019-01-10T13:51:21.678Z,20.73
2019-01-10T13:56:25.783Z,20.63
2019-01-10T14:01:29.876Z,20.54
2019-01-10T14:06:33.986Z,20.40
2019-01-10T14:11:38.113Z,20.29
2019-01-10T14:16:42.485Z,20.29
2019-01-10T14:21:47.008Z,20.63
2019-01-10T14:26:51.388Z,20.93
2019-01-10T14:31:55.918Z,21.23
2019-01-10T14:36:59.952Z,21.03
2019-01-10T14:42:04.264Z,21.03
2019-01-10T14:47:08.498Z,21.21
2019-01-10T14:52:12.899Z,21.28
2019-01-10T14:57:17.207Z,21.44
2019-01-10T15:02:22.086Z,21.29
2019-01-10T15:07:26.299Z,21.40
2019-01-10T15:12:30.341Z,21.35
2019-01-10T15:17:34.549Z,21.51
2019-01-10T15:22:38.735Z,21.51
2019-01-10T15:27:42.851Z,21.43
2019-01-10T15:32:47.050Z,21.58
2019-01-10T15:37:51.072Z,21.62
2019-01-10T15:42:55.301Z,21.56
2019-01-10T15:47:59.494Z,21.56
2019-01-10T15:53:03.699Z,21.56
2019-01-10T15:58:07.864Z,21.54
2019-01-10T16:03:12.039Z,21.66
2019-01-10T16:08:16.096Z,21.80
2019-01-10T16:13:20.261Z,21.64
2019-01-10T16:18:24.331Z,21.59
2019-01-10T16:23:28.520Z,21.59
2019-01-10T16:28:32.573Z,21.64
2019-01-10T16:33:36.613Z,21.89
2019-01-10T16:38:40.747Z,21.78
2019-01-10T16:43:44.902Z,21.81
2019-01-10T16:48:48.952Z,21.81
2019-01-10T16:53:53.064Z,21.93
2019-01-10T16:58:57.294Z,22.13
2019-01-10T17:04:01.499Z,22.09
2019-01-10T17:09:09.049Z,22.05
2019-01-10T17:14:13.081Z,22.03
2019-01-10T17:19:17.204Z,22.26
2019-01-10T17:24:21.398Z,22.26
2019-01-10T17:29:25.439Z,22.27
2019-01-10T17:34:29.728Z,22.10
2019-01-10T17:39:33.850Z,22.08
2019-01-10T17:44:38.323Z,22.08
2019-01-10T17:49:42.592Z,22.05
2019-01-10T17:54:46.636Z,21.98
2019-01-10T17:59:50.878Z,21.90
2019-01-10T18:04:54.941Z,21.82
2019-01-10T18:09:59.146Z,21.82
2019-01-10T18:15:03.457Z,22.10
2019-01-10T18:20:11.820Z,22.14
2019-01-10T18:25:16.038Z,22.18
2019-01-10T18:30:21.734Z,22.13
2019-01-10T18:35:26.728Z,22.13
2019-01-10T18:40:31.164Z,21.85
2019-01-10T18:45:35.958Z,21.85
2019-01-10T18:50:39.997Z,21.86
2019-01-10T18:55:44.135Z,22.06
2019-01-10T19:00:48.350Z,22.28
2019-01-10T19:05:52.757Z,22.31
2019-01-10T19:10:56.782Z,22.29
2019-01-10T19:16:00.817Z,22.29
2019-01-10T19:21:04.973Z,22.04
2019-01-10T19:26:09.101Z,22.04
2019-01-10T19:31:13.150Z,21.67
2019-01-10T19:36:17.229Z,21.73
2019-01-10T19:41:21.377Z,21.99
2019-01-10T19:46:25.511Z,22.08
2019-01-10T19:51:29.540Z,22.35
2019-01-10T19:56:33.688Z,22.26
2019-01-10T20:01:38.622Z,22.26
2019-01-10T20:06:42.766Z,22.02
2019-01-10T20:11:47.035Z,21.85
2019-01-10T20:16:51.153Z,21.64
2019-01-10T20:21:55.199Z,21.76
2019-01-10T20:26:59.361Z,22.21
2019-01-10T20:32:03.554Z,22.28
2019-01-10T20:37:07.775Z,22.35
2019-01-10T20:42:11.957Z,22.35
2019-01-10T20:47:15.992Z,22.23
2019-01-10T20:52:20.041Z,22.11
2019-01-10T20:57:24.134Z,22.11
2019-01-10T21:02:29.624Z,22.00
2019-01-10T21:07:33.760Z,21.98
2019-01-10T21:12:38.002Z,22.17
2019-01-10T21:17:42.267Z,22.36
2019-01-10T21:22:46.462Z,22.36
2019-01-10T21:27:50.704Z,22.17
2019-01-10T21:32:56.178Z,22.05
2019-01-10T21:38:00.369Z,22.13
2019-01-10T21:43:04.940Z,22.13
2019-01-10T21:48:09.076Z,22.07
2019-01-10T21:53:13.638Z,22.22
2019-01-10T21:58:17.779Z,22.35
2019-01-10T22:03:21.969Z,22.39
2019-01-10T22:08:25.994Z,22.45
2019-01-10T22:13:30.028Z,22.45
2019-01-10T22:18:34.231Z,22.26
2019-01-10T22:23:39.472Z,22.16
2019-01-10T22:28:43.670Z,22.08
2019-01-10T22:33:47.732Z,22.06
2019-01-10T22:38:51.861Z,22.03
2019-01-10T22:43:55.911Z,22.10
2019-01-10T22:49:00.074Z,22.42
2019-01-10T22:54:04.193Z,22.46
2019-01-10T22:59:08.429Z,22.49
2019-01-10T23:04:14.962Z,22.37
2019-01-10T23:09:20.677Z,22.34
2019-01-10T23:14:24.826Z,22.21
2019-01-10T23:19:28.967Z,22.13
2019-01-10T23:24:33.078Z,22.12
2019-01-10T23:29:37.373Z,22.11
2019-01-10T23:34:48.287Z,22.24
2019-01-10T23:39:52.677Z,22.24
2019-01-10T23:44:56.781Z,22.46
2019-01-10T23:50:01.145Z,22.51
2019-01-10T23:55:06.538Z,22.51
